createdAt,value
2018-01-19T00:00:15.982Z,10.29
2018-01-19T00:00:56.485Z,10.32
2018-01-19T00:01:37.069Z,10.29
2018-01-19T00:02:17.581Z,10.26
2018-01-19T00:02:58.061Z,10.32
2018-01-19T00:03:38.596Z,10.33
2018-01-19T00:04:19.189Z,10.12
2018-01-19T00:04:59.748Z,10.29
2018-01-19T00:05:40.224Z,10.29
2018-01-19T00:06:20.755Z,10.32
2018-01-19T00:07:01.391Z,10.26
2018-01-19T00:07:41.825Z,10.18
2018-01-19T00:08:22.382Z,10.27
2018-01-19T00:09:02.890Z,10.25
2018-01-19T00:09:43.495Z,10.26
2018-01-19T00:10:24.073Z,10.29
2018-01-19T00:11:04.662Z,10.4
2018-01-19T00:11:45.157Z,10.3
2018-01-19T00:12:25.664Z,10.23
2018-01-19T00:13:06.179Z,10.18
2018-01-19T00:13:46.732Z,10.23
2018-01-19T00:14:27.267Z,10.14
2018-01-19T00:15:07.835Z,10.17
2018-01-19T00:15:48.357Z,10.23
2018-01-19T00:16:28.881Z,10.26
2018-01-19T00:17:09.460Z,10.34
2018-01-19T00:17:49.980Z,10.4
2018-01-19T00:18:30.580Z,10.34
2018-01-19T00:19:11.102Z,10.36
2018-01-19T00:19:51.634Z,10.38
2018-01-19T00:20:32.248Z,10.38
2018-01-19T00:21:12.781Z,10.32
2018-01-19T00:21:53.336Z,10.32
2018-01-19T00:22:33.853Z,10.34
2018-01-19T00:23:14.319Z,10.47
2018-01-19T00:23:54.832Z,10.36
2018-01-19T00:24:35.379Z,10.34
2018-01-19T00:25:15.936Z,10.4
2018-01-19T00:25:56.434Z,10.59
2018-01-19T00:26:37.026Z,10.52
2018-01-19T00:27:17.562Z,10.52
2018-01-19T00:27:58.058Z,10.45
2018-01-19T00:28:38.541Z,10.4
2018-01-19T00:29:19.104Z,10.45
2018-01-19T00:29:59.608Z,10.53
2018-01-19T00:30:40.170Z,10.53
2018-01-19T00:31:20.780Z,10.63
2018-01-19T00:32:01.245Z,10.61
2018-01-19T00:32:41.768Z,10.53
2018-01-19T00:33:22.330Z,10.59
2018-01-19T00:34:02.842Z,10.51
2018-01-19T00:34:43.405Z,10.51
2018-01-19T00:35:23.861Z,10.52
2018-01-19T00:36:04.411Z,10.52
2018-01-19T00:36:44.900Z,10.48
2018-01-19T00:37:25.440Z,10.51
2018-01-19T00:38:06.004Z,10.53
2018-01-19T00:38:46.489Z,10.63
2018-01-19T00:39:27.017Z,10.61
2018-01-19T00:40:07.570Z,10.64
2018-01-19T00:40:48.162Z,10.61
2018-01-19T00:41:28.696Z,10.55
2018-01-19T00:42:09.262Z,10.61
2018-01-19T00:42:49.803Z,10.76
2018-01-19T00:43:30.411Z,10.56
2018-01-19T00:44:10.901Z,10.56
2018-01-19T00:44:51.471Z,10.59
2018-01-19T00:45:32.005Z,10.66
2018-01-19T00:46:12.548Z,10.52
2018-01-19T00:46:53.030Z,10.56
2018-01-19T00:47:33.647Z,10.56
2018-01-19T00:48:14.122Z,10.55
2018-01-19T00:48:54.596Z,10.64
2018-01-19T00:49:35.118Z,10.47
2018-01-19T00:50:15.664Z,10.53
2018-01-19T00:50:56.246Z,10.52
2018-01-19T00:51:36.730Z,10.52
2018-01-19T00:52:17.297Z,10.52
2018-01-19T00:52:57.872Z,10.63
2018-01-19T00:53:38.414Z,10.52
2018-01-19T00:54:19.013Z,10.64
2018-01-19T00:54:59.523Z,10.59
2018-01-19T00:55:40.043Z,10.7
2018-01-19T00:56:20.557Z,10.73
2018-01-19T00:57:01.107Z,10.78
2018-01-19T00:57:41.644Z,10.78
2018-01-19T00:58:22.227Z,10.88
2018-01-19T00:59:02.752Z,10.79
2018-01-19T00:59:43.238Z,10.85
2018-01-19T01:00:23.824Z,10.79
2018-01-19T01:01:04.313Z,10.82
2018-01-19T01:01:44.826Z,10.82
2018-01-19T01:02:25.360Z,10.82
2018-01-19T01:03:05.900Z,10.84
2018-01-19T01:03:46.422Z,10.74
2018-01-19T01:04:26.953Z,10.55
2018-01-19T01:05:07.451Z,10.51
2018-01-19T01:05:48.029Z,10.4
2018-01-19T01:06:28.501Z,10.33
2018-01-19T01:07:09.094Z,10.34
2018-01-19T01:07:49.654Z,10.33
2018-01-19T01:08:30.197Z,10.3
2018-01-19T01:09:10.764Z,10.25
2018-01-19T01:09:51.397Z,10.08
2018-01-19T01:10:31.849Z,10.04
2018-01-19T01:11:12.401Z,10.22
2018-01-19T01:11:52.914Z,10.17
2018-01-19T01:12:33.495Z,10.15
2018-01-19T01:13:14.012Z,10.15
2018-01-19T01:13:54.567Z,10.27
2018-01-19T01:14:35.056Z,10.22
2018-01-19T01:15:15.609Z,10.18
2018-01-19T01:15:56.131Z,10.2
2018-01-19T01:16:36.704Z,10.26
2018-01-19T01:17:17.231Z,10.33
2018-01-19T01:17:57.708Z,10.33
2018-01-19T01:19:56.132Z,10.25
2018-01-19T01:20:36.679Z,10.18
2018-01-19T01:21:17.202Z,10.15
2018-01-19T01:21:57.731Z,10.2
2018-01-19T01:22:38.264Z,10.11
2018-01-19T01:23:18.770Z,10.15
2018-01-19T01:23:59.276Z,10.18
2018-01-19T01:24:39.817Z,10.18
2018-01-19T01:25:20.397Z,10.05
2018-01-19T01:26:00.897Z,10.12
2018-01-19T01:26:41.398Z,10.15
2018-01-19T01:27:21.949Z,10.15
2018-01-19T16:42:11.568Z,7.49
2018-01-19T16:42:52.088Z,7.55
2018-01-19T16:43:32.637Z,7.52
2018-01-19T16:44:13.258Z,7.5
2018-01-19T16:44:53.784Z,7.45
2018-01-19T16:45:34.992Z,7.58
2018-01-19T16:46:14.878Z,7.42
2018-01-19T16:46:55.509Z,7.39
2018-01-19T16:47:35.981Z,7.53
2018-01-19T16:48:16.637Z,7.55
2018-01-19T16:48:57.221Z,7.61
2018-01-19T16:49:37.727Z,7.79
2018-01-19T16:50:18.321Z,7.69
2018-01-19T16:50:58.904Z,7.68
2018-01-19T16:51:39.383Z,7.53
2018-01-19T16:52:20.019Z,7.75
2018-01-19T16:54:35.144Z,7.89
2018-01-19T16:55:15.708Z,8.01
2018-01-19T16:55:56.240Z,8.01
2018-01-19T16:56:36.776Z,8.04
2018-01-19T16:57:17.334Z,8.07
2018-01-19T16:57:57.924Z,7.86
2018-01-19T16:58:38.454Z,7.82
2018-01-19T16:59:19.241Z,7.68
2018-01-19T16:59:59.775Z,7.67
2018-01-19T17:00:40.352Z,7.79
2018-01-19T17:01:20.904Z,7.52
2018-01-19T17:02:01.471Z,7.64
2018-01-19T17:02:42.042Z,7.61
2018-01-19T17:03:22.558Z,7.71
2018-01-19T17:04:03.136Z,7.69
2018-01-19T17:04:43.662Z,7.82
2018-01-19T17:05:24.186Z,7.68
2018-01-19T17:06:04.717Z,7.72
2018-01-19T17:06:45.285Z,7.79
2018-01-19T17:07:25.838Z,7.63
2018-01-19T17:08:06.393Z,7.82
2018-01-19T17:08:46.988Z,7.77
2018-01-19T17:09:27.495Z,7.77
2018-01-19T17:10:08.029Z,7.86
2018-01-19T17:10:48.628Z,7.83
2018-01-19T17:11:29.149Z,7.92
2018-01-19T17:12:09.661Z,7.87
2018-01-19T17:12:50.258Z,7.87
2018-01-19T17:13:30.784Z,7.85
2018-01-19T17:14:11.360Z,7.95
2018-01-19T17:14:51.934Z,7.89
2018-01-19T17:15:33.389Z,7.9
2018-01-19T17:16:13.893Z,7.97
2018-01-19T17:16:54.437Z,7.89
2018-01-19T17:17:35.122Z,8
2018-01-19T17:18:15.701Z,8.08
2018-01-19T17:18:56.234Z,8.08
2018-01-19T17:19:36.757Z,8.11
2018-01-19T17:20:17.509Z,8.05
2018-01-19T17:20:58.669Z,8.18
2018-01-19T17:21:38.665Z,8.23
2018-01-19T17:22:19.221Z,8.29
2018-01-19T17:22:59.765Z,8.26
2018-01-19T17:23:40.390Z,8.43
2018-01-19T17:24:20.940Z,8.41
2018-01-19T17:25:01.490Z,8.34
2018-01-19T17:25:42.000Z,8.29
2018-01-19T17:26:22.524Z,8.44
2018-01-19T17:27:03.087Z,8.34
2018-01-19T17:27:43.613Z,8.41
2018-01-19T17:28:24.177Z,8.38
2018-01-19T17:29:04.775Z,8.43
2018-01-19T17:29:45.344Z,8.48
2018-01-19T17:30:25.856Z,8.37
2018-01-19T17:31:06.453Z,8.33
2018-01-19T17:31:47.039Z,8.19
2018-01-19T17:32:27.732Z,8.18
2018-01-19T17:33:08.250Z,8.05
2018-01-19T17:33:48.808Z,8.02
2018-01-19T17:34:29.363Z,7.89
2018-01-19T17:35:09.895Z,7.85
2018-01-19T17:35:50.408Z,7.77
2018-01-19T17:36:30.979Z,7.92
2018-01-19T17:37:11.476Z,7.97
2018-01-19T17:37:52.007Z,8.01
2018-01-19T17:38:32.682Z,8.07
2018-01-19T17:39:13.227Z,8.02
2018-01-19T17:39:53.805Z,7.86
2018-01-19T17:40:34.371Z,7.86
2018-01-19T17:41:14.929Z,7.89
2018-01-19T17:41:55.486Z,7.89
2018-01-19T17:42:36.002Z,7.92
2018-01-19T17:43:16.505Z,7.95
2018-01-19T17:43:57.045Z,7.95
2018-01-19T17:44:37.596Z,7.89
2018-01-19T17:45:18.152Z,7.83
2018-01-19T17:45:58.710Z,7.86
2018-01-19T17:46:39.264Z,7.79
2018-01-19T17:47:19.793Z,7.92
2018-01-19T17:48:00.417Z,7.93
2018-01-19T17:48:40.890Z,7.85
2018-01-19T17:49:21.466Z,7.68
2018-01-19T17:50:02.077Z,7.68
2018-01-19T17:50:42.626Z,7.58
2018-01-19T17:51:23.195Z,7.55
2018-01-19T17:52:03.775Z,7.58
2018-01-19T17:52:44.248Z,7.63
2018-01-19T17:53:24.753Z,7.63
2018-01-19T17:54:05.338Z,7.52
2018-01-19T17:54:45.975Z,7.46
2018-01-19T17:55:26.547Z,7.46
2018-01-19T17:56:07.092Z,7.5
2018-01-19T17:56:47.617Z,7.4
2018-01-19T17:57:28.246Z,7.55
2018-01-19T17:58:08.716Z,7.5
2018-01-19T17:58:49.254Z,7.67
2018-01-19T17:59:29.876Z,7.64
2018-01-19T18:00:10.390Z,7.61
2018-01-19T18:00:50.950Z,7.49
2018-01-19T18:01:31.507Z,7.49
2018-01-19T18:02:12.167Z,7.5
2018-01-19T18:02:52.586Z,7.72
2018-01-19T18:03:33.096Z,7.68
2018-01-19T18:04:13.636Z,7.61
2018-01-19T18:04:54.145Z,7.53
2018-01-19T18:05:34.722Z,7.52
2018-01-19T18:06:15.222Z,7.53
2018-01-19T18:06:55.770Z,7.5
2018-01-19T18:07:36.309Z,7.5
2018-01-19T18:08:16.854Z,7.58
2018-01-19T18:08:57.401Z,7.74
2018-01-19T18:09:37.985Z,7.8
2018-01-19T18:10:18.663Z,7.68
2018-01-19T18:10:59.277Z,7.5
2018-01-19T18:11:39.829Z,7.55
2018-01-19T18:12:20.364Z,7.48
2018-01-19T18:13:00.903Z,7.63
2018-01-19T18:13:41.507Z,7.74
2018-01-19T18:14:22.049Z,7.75
2018-01-19T18:15:02.837Z,7.48
2018-01-19T18:15:43.244Z,7.52
2018-01-19T18:16:23.793Z,7.61
2018-01-19T18:17:04.420Z,7.64
2018-01-19T18:17:45.120Z,7.61
2018-01-19T18:18:25.597Z,7.75
2018-01-19T18:19:06.186Z,7.61
2018-01-19T18:19:46.724Z,7.69
2018-01-19T18:20:27.314Z,7.8
2018-01-19T18:21:07.913Z,7.83
2018-01-19T18:21:48.934Z,7.82
2018-01-19T18:22:29.693Z,7.87
2018-01-19T18:23:10.171Z,8.07
2018-01-19T18:23:50.696Z,8.02
2018-01-19T18:24:31.295Z,7.93
2018-01-19T18:25:11.869Z,7.87
2018-01-19T18:25:52.538Z,7.71
2018-01-19T18:26:33.074Z,7.8
2018-01-19T18:27:13.575Z,7.77
2018-01-19T18:27:54.184Z,7.89
2018-01-19T18:28:34.761Z,7.89
2018-01-19T18:29:15.294Z,7.83
2018-01-19T18:29:56.044Z,8.02
2018-01-19T18:30:36.570Z,7.93
2018-01-19T18:31:17.147Z,7.93
2018-01-19T18:31:57.746Z,7.89
2018-01-19T18:32:38.273Z,7.86
2018-01-19T18:33:18.900Z,7.85
2018-01-19T18:33:59.563Z,7.9
2018-01-19T18:34:40.160Z,7.98
2018-01-19T18:35:20.649Z,7.86
2018-01-19T18:36:01.136Z,7.83
2018-01-19T18:36:41.732Z,7.61
2018-01-19T18:37:22.319Z,7.61
2018-01-19T18:38:02.888Z,7.61
2018-01-19T18:38:43.397Z,7.61
2018-01-19T18:39:23.928Z,7.71
2018-01-19T18:40:04.557Z,7.77
2018-01-19T18:40:45.119Z,7.79
2018-01-19T18:41:25.671Z,7.79
2018-01-19T18:42:06.458Z,7.72
2018-01-19T18:42:46.855Z,7.69
2018-01-19T18:43:27.383Z,7.86
2018-01-19T18:44:07.978Z,7.86
2018-01-19T18:44:48.535Z,7.98
2018-01-19T18:45:29.106Z,7.83
2018-01-19T18:46:09.705Z,7.8
2018-01-19T18:46:50.217Z,7.68
2018-01-19T18:47:30.806Z,7.75
2018-01-19T18:48:11.382Z,7.57
2018-01-19T18:48:51.931Z,7.63
2018-01-19T18:49:32.426Z,7.74
2018-01-19T18:50:13.089Z,7.83
2018-01-19T18:50:53.615Z,7.82
2018-01-19T18:51:34.154Z,7.92
2018-01-19T18:52:14.674Z,8.02
2018-01-19T18:52:55.200Z,7.79
2018-01-19T18:53:35.801Z,7.79
2018-01-19T18:54:16.351Z,7.87
2018-01-19T18:54:56.943Z,7.89
2018-01-19T18:55:37.461Z,7.92
2018-01-19T18:56:17.986Z,8.05
2018-01-19T18:56:58.587Z,8.18
2018-01-19T18:57:39.120Z,8.05
2018-01-19T18:58:19.678Z,8.15
2018-01-19T18:59:00.184Z,8.1
2018-01-19T18:59:40.902Z,8.05
2018-01-19T19:00:21.530Z,7.9
2018-01-19T19:01:02.060Z,7.87
2018-01-19T19:01:42.745Z,8
2018-01-19T19:02:23.262Z,8.04
2018-01-19T19:03:03.726Z,8
2018-01-19T19:03:44.244Z,8.07
2018-01-19T19:04:24.966Z,7.92
2018-01-19T19:05:05.455Z,7.86
2018-01-19T19:05:46.069Z,8
2018-01-19T19:06:26.627Z,7.98
2018-01-19T19:07:07.147Z,7.9
2018-01-19T19:07:47.737Z,7.85
2018-01-19T19:08:28.928Z,7.89
2018-01-19T19:09:09.688Z,7.87
2018-01-19T19:09:50.349Z,7.93
2018-01-19T19:10:30.910Z,7.92
2018-01-19T19:11:13.106Z,7.89
2018-01-19T19:11:53.775Z,7.83
2018-01-19T19:12:34.402Z,7.83
2018-01-19T19:13:14.864Z,7.89
2018-01-19T19:13:55.408Z,7.75
2018-01-19T19:14:35.956Z,7.69
2018-01-19T19:15:16.562Z,7.9
2018-01-19T19:15:57.234Z,7.97
2018-01-19T19:16:37.722Z,8.08
2018-01-19T19:17:18.233Z,8.1
2018-01-19T19:17:58.945Z,8.11
2018-01-19T19:18:39.531Z,8.04
2018-01-19T19:19:21.132Z,8.1
2018-01-19T19:20:01.757Z,8.11
2018-01-19T19:20:42.226Z,8.2
2018-01-19T19:21:22.729Z,8.12
2018-01-19T19:22:03.369Z,8.07
2018-01-19T19:22:43.939Z,8.04
2018-01-19T19:23:24.469Z,8.2
2018-01-19T19:24:04.943Z,8.11
2018-01-19T19:24:45.516Z,8.11
2018-01-19T19:25:26.651Z,8.19
2018-01-19T19:26:07.175Z,8.08
2018-01-19T19:30:07.345Z,8.07
2018-01-19T19:30:46.959Z,8.04
2018-01-19T19:31:27.820Z,8.04
2018-01-19T19:32:08.991Z,8.01
2018-01-19T19:32:59.112Z,8.12
2018-01-19T19:33:44.760Z,8.05
2018-01-19T19:34:25.688Z,8.02
2018-01-19T19:35:07.056Z,8.01
2018-01-19T19:35:47.275Z,7.89
2018-01-19T19:36:28.215Z,7.9
2018-01-19T19:37:09.647Z,7.89
2018-01-19T19:37:52.111Z,7.9
2018-01-19T19:38:37.866Z,7.87
2018-01-19T19:40:32.108Z,7.74
2018-01-19T19:41:12.584Z,7.67
2018-01-19T19:41:53.104Z,7.63
2018-01-19T19:42:33.706Z,7.58
2018-01-19T19:43:17.264Z,7.63
2018-01-19T19:43:57.826Z,7.69
2018-01-19T19:44:38.462Z,7.74
2018-01-19T19:45:20.557Z,7.89
2018-01-19T19:46:01.930Z,7.85
2018-01-19T19:46:42.426Z,7.89
2018-01-19T19:47:23.009Z,7.92
2018-01-19T19:48:03.624Z,7.97
2018-01-19T19:48:46.356Z,7.97
2018-01-19T19:49:27.076Z,7.9
2018-01-19T19:50:07.722Z,8.01
2018-01-19T19:50:48.356Z,8.04
2018-01-19T19:51:28.882Z,8.07
2018-01-19T19:52:13.283Z,8.1
2018-01-19T19:52:53.871Z,8.01
2018-01-19T19:53:36.639Z,8.1
2018-01-19T19:54:18.661Z,8.08
2018-01-19T19:55:01.182Z,8.19
2018-01-19T19:55:41.794Z,8.12
2018-01-19T19:56:22.480Z,8.16
2018-01-19T19:57:03.201Z,8
2018-01-19T19:57:45.635Z,8.15
2018-01-19T19:58:27.220Z,8.05
2018-01-19T19:59:07.763Z,8.07
2018-01-19T19:59:48.398Z,8.1
2018-01-19T20:00:28.908Z,8.12
2018-01-19T20:01:12.364Z,8.04
2018-01-19T20:01:52.942Z,8
2018-01-19T20:02:33.551Z,7.98
2018-01-19T20:04:33.304Z,7.69
2018-01-19T20:05:15.152Z,7.75
2018-01-19T20:05:55.876Z,7.77
2018-01-19T20:06:36.416Z,7.8
2018-01-19T20:07:16.996Z,7.8
2018-01-19T20:07:57.673Z,7.82
2018-01-19T20:08:38.525Z,7.63
2018-01-19T20:09:22.246Z,7.72
2018-01-19T20:10:02.846Z,7.64
2018-01-19T20:11:50.872Z,7.52
2018-01-19T20:12:31.651Z,7.5
2018-01-19T20:13:12.530Z,7.58
2018-01-19T20:13:53.234Z,7.64
2018-01-19T20:14:33.773Z,7.52
2018-01-19T20:15:14.498Z,7.67
2018-01-19T20:15:56.664Z,7.63
2018-01-19T20:16:37.622Z,7.68
2018-01-19T20:17:18.291Z,7.74
2018-01-19T20:17:58.871Z,7.63
2018-01-19T20:18:41.265Z,7.68
2018-01-19T20:19:22.022Z,7.77
2018-01-19T20:20:02.671Z,7.83
2018-01-19T20:20:43.242Z,7.9
2018-01-19T20:21:23.892Z,7.9
2018-01-19T20:22:07.074Z,7.9
2018-01-19T20:22:47.650Z,8.05
2018-01-19T20:23:28.254Z,8.04
2018-01-19T20:24:12.819Z,8.08
2018-01-19T20:24:53.652Z,8.11
2018-01-19T20:25:37.101Z,8.07
2018-01-19T20:26:17.639Z,8.04
2018-01-19T20:26:58.238Z,8.05
2018-01-19T20:27:38.771Z,8.07
2018-01-19T20:28:19.665Z,8.08
2018-01-19T20:29:01.657Z,8.1
2018-01-19T20:29:42.335Z,8.23
2018-01-19T20:30:22.842Z,8.26
2018-01-19T20:31:03.441Z,8.18
2018-01-19T20:31:44.004Z,8.08
2018-01-19T20:32:27.163Z,8.08
2018-01-19T20:33:07.889Z,8.05
2018-01-19T20:33:48.444Z,8.05
2018-01-19T20:34:29.052Z,8.08
2018-01-19T20:35:11.356Z,8.1
2018-01-19T20:35:52.507Z,7.97
2018-01-19T20:36:33.126Z,7.89
2018-01-19T20:37:13.728Z,7.89
2018-01-19T20:37:56.169Z,7.89
2018-01-19T20:39:34.172Z,7.86
2018-01-19T20:40:15.036Z,7.75
2018-01-19T20:40:56.320Z,7.74
2018-01-19T20:41:37.268Z,7.83
2018-01-19T20:42:17.769Z,7.87
2018-01-19T20:42:58.355Z,7.9
2018-01-19T20:43:38.925Z,7.83
2018-01-19T20:44:21.634Z,7.79
2018-01-19T20:45:02.078Z,7.74
2018-01-19T20:45:42.653Z,7.77
2018-01-19T20:46:23.242Z,7.75
2018-01-19T20:47:03.769Z,7.89
2018-01-19T20:47:46.002Z,7.86
2018-01-19T20:48:28.210Z,7.86
2018-01-19T20:49:08.758Z,7.75
2018-01-19T20:49:49.363Z,7.77
2018-01-19T20:50:29.834Z,7.52
2018-01-19T20:51:10.612Z,7.71
2018-01-19T20:51:52.436Z,7.68
2018-01-19T20:52:34.772Z,7.63
2018-01-19T20:53:17.648Z,7.79
2018-01-19T20:54:00.677Z,7.68
2018-01-19T20:54:41.756Z,7.53
2018-01-19T20:55:22.350Z,7.68
2018-01-19T20:56:03.287Z,7.79
2018-01-19T20:56:44.196Z,7.72
2018-01-19T20:57:24.777Z,7.89
2018-01-19T20:58:06.872Z,7.8
2018-01-19T20:58:46.766Z,7.93
2018-01-19T20:59:27.770Z,7.55
2018-01-19T21:00:08.898Z,7.55
2018-01-19T21:00:49.614Z,7.57
2018-01-19T21:01:30.174Z,7.67
2018-01-19T21:02:10.804Z,7.61
2018-01-19T21:02:51.518Z,7.61
2018-01-19T21:03:32.283Z,7.67
2018-01-19T21:04:12.870Z,7.57
2018-01-19T21:04:53.385Z,7.53
2018-01-19T21:05:33.987Z,7.61
2018-01-19T21:06:14.581Z,7.57
2018-01-19T21:06:55.097Z,7.53
2018-01-19T21:07:35.657Z,7.53
2018-01-19T21:08:19.792Z,7.48
2018-01-19T21:09:00.468Z,7.52
2018-01-19T21:09:41.012Z,7.68
2018-01-19T21:10:22.597Z,7.67
2018-01-19T21:11:03.210Z,7.55
2018-01-19T21:11:43.774Z,7.52
2018-01-19T21:12:24.310Z,7.58
2018-01-19T21:13:04.959Z,7.39
2018-01-19T21:13:45.518Z,7.5
2018-01-19T21:14:26.106Z,7.39
2018-01-19T21:15:06.819Z,7.42
2018-01-19T21:15:48.737Z,7.53
2018-01-19T21:16:29.391Z,7.48
2018-01-19T21:17:10.622Z,7.4
2018-01-19T21:17:51.231Z,7.42
2018-01-19T21:18:31.848Z,7.43
2018-01-19T21:19:14.129Z,7.46
2018-01-19T21:19:55.085Z,7.42
2018-01-19T21:20:36.117Z,7.32
2018-01-19T21:21:16.839Z,7.42
2018-01-19T21:21:59.219Z,7.3
2018-01-19T21:22:40.096Z,7.32
2018-01-19T21:23:20.567Z,7.35
2018-01-19T21:24:01.696Z,7.43
2018-01-19T21:24:42.250Z,7.34
2018-01-19T21:25:22.859Z,7.52
2018-01-19T21:26:03.541Z,7.6
2018-01-19T21:26:44.080Z,7.6
2018-01-19T21:27:24.640Z,7.58
2018-01-19T21:28:05.292Z,7.69
2018-01-19T21:28:45.972Z,7.72
2018-01-19T21:29:26.475Z,7.82
2018-01-19T21:30:08.596Z,7.71
2018-01-19T21:30:49.185Z,7.64
2018-01-19T21:31:29.798Z,7.82
2018-01-19T21:32:10.291Z,7.71
2018-01-19T21:32:50.881Z,7.75
2018-01-19T21:33:31.444Z,7.69
2018-01-19T21:34:11.952Z,7.68
2018-01-19T21:34:54.297Z,7.82
2018-01-19T21:36:35.144Z,7.72
2018-01-19T21:37:15.733Z,7.74
2018-01-19T21:37:56.316Z,7.75
2018-01-19T21:38:36.835Z,7.79
2018-01-19T21:39:19.711Z,7.83
2018-01-19T21:40:01.010Z,7.97
2018-01-19T21:40:41.507Z,7.87
2018-01-19T21:41:22.037Z,7.9
2018-01-19T21:42:04.669Z,7.9
2018-01-19T21:42:46.117Z,7.71
2018-01-19T21:43:26.732Z,7.79
2018-01-19T21:44:09.496Z,7.52
2018-01-19T21:44:49.875Z,7.52
2018-01-19T21:45:30.528Z,7.53
2018-01-19T21:46:11.143Z,7.53
2018-01-19T21:46:51.575Z,7.5
2018-01-19T21:47:32.244Z,7.5
2018-01-19T21:48:12.772Z,7.45
2018-01-19T21:48:56.328Z,7.4
2018-01-19T21:49:36.805Z,7.42
2018-01-19T21:50:17.360Z,7.43
2018-01-19T21:50:59.851Z,7.3
2018-01-19T21:51:41.376Z,7.34
2018-01-19T21:52:21.996Z,7.27
2018-01-19T21:53:02.592Z,7.21
2018-01-19T21:53:46.098Z,7.21
2018-01-19T21:54:26.756Z,7.27
2018-01-19T21:55:10.881Z,7.21
2018-01-19T21:55:50.707Z,7.13
2018-01-19T21:56:32.225Z,7.24
2018-01-19T21:57:14.358Z,7.28
2018-01-19T21:57:55.680Z,7.23
2018-01-19T21:58:36.450Z,7.27
2018-01-19T21:59:17.009Z,7.39
2018-01-19T21:59:58.084Z,7.3
2018-01-19T22:00:40.903Z,7.3
2018-01-19T22:01:21.600Z,7.25
2018-01-19T22:02:02.434Z,7.3
2018-01-19T22:02:44.894Z,7.24
2018-01-19T22:03:25.369Z,7.31
2018-01-19T22:04:05.938Z,7.28
2018-01-19T22:04:46.451Z,7.3
2018-01-19T22:05:26.969Z,7.3
2018-01-19T22:06:07.658Z,7.32
2018-01-19T22:06:48.186Z,7.3
2018-01-19T22:07:29.438Z,7.21
2018-01-19T22:08:10.121Z,7.34
2018-01-19T22:08:50.611Z,7.31
2018-01-19T22:09:31.172Z,7.27
2018-01-19T22:10:11.682Z,7.24
2018-01-19T22:10:52.195Z,7.09
2018-01-19T22:11:32.730Z,6.99
2018-01-19T22:12:13.294Z,7.03
2018-01-19T22:12:55.526Z,7.03
2018-01-19T22:13:36.084Z,7.02
2018-01-19T22:14:17.181Z,7.21
2018-01-19T22:15:00.097Z,7.2
2018-01-19T22:15:40.915Z,7.23
2018-01-19T22:16:21.638Z,7.35
2018-01-19T22:17:02.158Z,7.3
2018-01-19T22:17:42.701Z,7.24
2018-01-19T22:18:23.241Z,7.3
2018-01-19T22:19:03.812Z,7.32
2018-01-19T22:19:46.432Z,7.28
2018-01-19T22:20:27.009Z,7.31
2018-01-19T22:21:07.562Z,7.45
2018-01-19T22:21:48.107Z,7.48
2018-01-19T22:22:28.663Z,7.61
2018-01-19T22:23:11.083Z,7.6
2018-01-19T22:23:51.001Z,7.53
2018-01-19T22:24:31.572Z,7.53
2018-01-19T22:25:12.087Z,7.64
2018-01-19T22:25:52.641Z,7.64
2018-01-19T22:26:33.383Z,7.55
2018-01-19T22:27:13.939Z,7.57
2018-01-19T22:27:54.532Z,7.49
2018-01-19T22:28:35.408Z,7.45
2018-01-19T22:29:16.810Z,7.4
2018-01-19T22:29:57.231Z,7.42
2018-01-19T22:30:37.770Z,7.4
2018-01-19T22:31:18.386Z,7.39
2018-01-19T22:31:59.087Z,7.48
2018-01-19T22:32:40.163Z,7.43
2018-01-19T22:33:20.708Z,7.46
2018-01-19T22:34:01.220Z,7.4
2018-01-19T22:34:41.790Z,7.42
2018-01-19T22:35:22.300Z,7.42
2018-01-19T22:36:02.925Z,7.52
2018-01-19T22:36:43.443Z,7.58
2018-01-19T22:37:23.955Z,7.55
2018-01-19T22:38:04.522Z,7.46
2018-01-19T22:38:45.083Z,7.42
2018-01-19T22:39:25.725Z,7.48
2018-01-19T22:40:06.255Z,7.35
2018-01-19T22:40:46.781Z,7.35
2018-01-19T22:41:27.294Z,7.3
2018-01-19T22:42:07.868Z,7.42
2018-01-19T22:42:48.421Z,7.42
2018-01-19T22:43:28.989Z,7.39
2018-01-19T22:44:09.625Z,7.28
2018-01-19T22:44:50.154Z,7.28
2018-01-19T22:45:30.850Z,7.31
2018-01-19T22:46:11.524Z,7.28
2018-01-19T22:46:52.239Z,7.28
2018-01-19T22:47:32.775Z,7.32
2018-01-19T22:48:17.184Z,7.32
2018-01-19T22:48:57.683Z,7.23
2018-01-19T22:49:38.229Z,7.15
2018-01-19T22:50:18.791Z,7.28
2018-01-19T22:50:59.262Z,7.28
2018-01-19T22:51:39.794Z,7.3
2018-01-19T22:52:20.344Z,7.09
2018-01-19T22:53:00.891Z,7.09
2018-01-19T22:53:41.431Z,7.03
2018-01-19T22:54:21.954Z,7.12
2018-01-19T22:55:02.481Z,7.05
2018-01-19T22:55:43.075Z,6.99
2018-01-19T22:56:23.634Z,6.98
2018-01-19T22:57:04.246Z,6.92
2018-01-19T22:57:44.714Z,6.8
2018-01-19T22:58:25.291Z,6.84
2018-01-19T22:59:06.613Z,6.88
2018-01-19T22:59:46.301Z,6.88
2018-01-19T23:00:26.909Z,6.77
2018-01-19T23:01:07.448Z,6.84
2018-01-19T23:01:47.991Z,6.88
2018-01-19T23:02:28.537Z,6.92
2018-01-19T23:03:09.055Z,6.81
2018-01-19T23:03:49.622Z,6.85
2018-01-19T23:04:30.219Z,6.89
2018-01-19T23:05:10.744Z,6.94
2018-01-19T23:05:51.357Z,6.84
2018-01-19T23:06:31.921Z,6.77
2018-01-19T23:07:12.484Z,6.76
2018-01-19T23:07:53.015Z,6.61
2018-01-19T23:08:33.594Z,6.7
2018-01-19T23:09:14.404Z,6.79
2018-01-19T23:09:54.766Z,6.81
2018-01-19T23:10:35.922Z,6.66
2018-01-19T23:11:17.079Z,6.79
2018-01-19T23:11:57.636Z,6.61
2018-01-19T23:12:38.181Z,6.64
2018-01-19T23:13:18.717Z,6.69
2018-01-19T23:13:59.290Z,6.62
2018-01-19T23:14:39.829Z,6.64
2018-01-19T23:15:21.241Z,6.7
2018-01-19T23:16:02.216Z,6.84
2018-01-19T23:16:42.879Z,6.89
2018-01-19T23:17:23.356Z,6.89
2018-01-19T23:18:03.970Z,6.8
2018-01-19T23:18:44.522Z,6.84
2018-01-19T23:19:25.103Z,6.84
2018-01-19T23:20:06.046Z,6.8
2018-01-19T23:20:49.135Z,6.76
2018-01-19T23:21:29.694Z,6.64
2018-01-19T23:22:10.244Z,6.67
2018-01-19T23:22:52.627Z,6.51
2018-01-19T23:23:33.154Z,6.54
2018-01-19T23:24:13.705Z,6.56
2018-01-19T23:24:54.252Z,6.59
2018-01-19T23:25:34.788Z,6.62
2018-01-19T23:26:15.372Z,6.52
2018-01-19T23:26:56.319Z,6.64
2018-01-19T23:27:37.870Z,6.71
2018-01-19T23:28:18.406Z,6.69
2018-01-19T23:28:59.144Z,6.58
2018-01-19T23:29:40.423Z,6.67
2018-01-19T23:30:22.978Z,6.61
2018-01-19T23:31:04.103Z,6.64
2018-01-19T23:31:44.598Z,6.59
2018-01-19T23:32:25.145Z,6.64
2018-01-19T23:33:05.707Z,6.74
2018-01-19T23:33:48.828Z,6.73
2018-01-19T23:34:29.347Z,6.84
2018-01-19T23:35:09.911Z,6.81
2018-01-19T23:35:50.473Z,6.74
2018-01-19T23:36:30.972Z,6.8
2018-01-19T23:37:13.803Z,6.88
2018-01-19T23:37:54.325Z,6.7
2018-01-19T23:38:34.864Z,6.7
2018-01-19T23:39:15.343Z,6.88
2018-01-19T23:39:55.915Z,6.89
2018-01-19T23:40:37.129Z,6.98
2018-01-19T23:41:18.935Z,7.03
2018-01-19T23:41:58.797Z,6.85
2018-01-19T23:42:39.381Z,6.81
2018-01-19T23:43:19.913Z,6.8
2018-01-19T23:44:00.394Z,6.64
2018-01-19T23:44:40.959Z,6.64
2018-01-19T23:45:21.487Z,6.58
2018-01-19T23:46:02.214Z,6.56
2018-01-19T23:46:45.035Z,6.76
2018-01-19T23:47:25.588Z,6.76
2018-01-19T23:48:08.293Z,6.69
2018-01-19T23:48:48.957Z,6.8
2018-01-19T23:49:30.395Z,6.91
2018-01-19T23:50:10.935Z,6.85
2018-01-19T23:50:51.532Z,6.74
2018-01-19T23:51:32.387Z,6.77
2018-01-19T23:52:13.195Z,6.79
2018-01-19T23:52:53.743Z,6.77
2018-01-19T23:53:34.276Z,6.77
2018-01-19T23:54:14.786Z,6.58
2018-01-19T23:54:55.330Z,6.67
2018-01-19T23:55:35.849Z,6.64
2018-01-19T23:56:16.431Z,6.64
2018-01-19T23:56:58.621Z,6.73
2018-01-19T23:57:39.134Z,6.64
2018-01-19T23:58:20.222Z,6.64
2018-01-19T23:59:00.627Z,6.64
2018-01-19T23:59:41.316Z,6.62
